Time;durP1;ratioP1;P1;durP2;ratioP2;P2;SDS_P1;SDS_P2;PMS_P1;PMS_P2;Temp;Humidity;BMP_temperature;BMP_pressure;BME280_temperature;BME280_humidity;BME280_pressure;Samples;Min_cycle;Max_cycle;Signal;HPM_P1;HPM_P2
2022/12/02 00:00:20;;;;;;;34.10;16.80;;;;;;;;;;5071341;28;20245;-42
2022/12/02 00:02:46;;;;;;;38.95;18.80;;;;;;;;;;5062870;28;20197;-42
2022/12/02 00:05:15;;;;;;;32.17;17.30;;;;;;;;;;5067291;28;20198;-42
2022/12/02 00:07:45;;;;;;;38.80;17.23;;;;;;;;;;5071057;28;20185;-42
2022/12/02 00:13:22;;;;;;;35.88;17.77;;;;;;;;;;5059878;28;20193;-42
2022/12/02 00:16:02;;;;;;;37.88;17.15;;;;;;;;;;5071283;28;20604;-42
2022/12/02 00:18:28;;;;;;;31.40;15.98;;;;;;;;;;5067328;28;20174;-42
2022/12/02 00:20:54;;;;;;;38.03;17.85;;;;;;;;;;5070762;28;20667;-42
2022/12/02 00:23:20;;;;;;;38.60;17.93;;;;;;;;;;5064453;28;20225;-42
2022/12/02 00:25:47;;;;;;;38.10;18.52;;;;;;;;;;5071662;28;20547;-42
2022/12/02 00:28:14;;;;;;;37.33;17.55;;;;;;;;;;5069924;28;20582;-42
2022/12/02 00:30:40;;;;;;;34.45;15.73;;;;;;;;;;5070059;28;20257;-42
2022/12/02 00:33:06;;;;;;;35.73;17.70;;;;;;;;;;5070785;28;20221;-42
2022/12/02 00:35:32;;;;;;;38.03;17.35;;;;;;;;;;5065504;28;20790;-42
2022/12/02 00:37:58;;;;;;;35.43;17.90;;;;;;;;;;5071766;28;20166;-42
2022/12/02 00:40:24;;;;;;;33.40;17.27;;;;;;;;;;5070120;28;20408;-42
2022/12/02 00:42:50;;;;;;;39.13;19.17;;;;;;;;;;5068637;28;20236;-42
2022/12/02 00:48:01;;;;;;;33.42;17.80;;;;;;;;;;5061418;28;20216;-42
2022/12/02 00:50:27;;;;;;;35.75;17.40;;;;;;;;;;5066733;28;20182;-42
2022/12/02 00:52:53;;;;;;;37.57;17.77;;;;;;;;;;5063879;28;20195;-42
2022/12/02 00:55:19;;;;;;;35.35;17.67;;;;;;;;;;5069011;28;20416;-42
2022/12/02 00:57:45;;;;;;;30.50;14.60;;;;;;;;;;5070957;28;20566;-42
2022/12/02 01:00:12;;;;;;;36.15;17.92;;;;;;;;;;5070963;28;20750;-42
2022/12/02 01:02:38;;;;;;;36.45;16.98;;;;;;;;;;5064311;28;20207;-42
2022/12/02 01:05:04;;;;;;;34.60;17.60;;;;;;;;;;5074191;28;20277;-42
2022/12/02 01:07:30;;;;;;;40.88;18.23;;;;;;;;;;5074030;28;20175;-42
2022/12/02 01:09:56;;;;;;;38.30;19.23;;;;;;;;;;5074267;28;20165;-42
2022/12/02 01:12:22;;;;;;;44.23;19.53;;;;;;;;;;5071725;28;20281;-42
2022/12/02 01:14:48;;;;;;;40.20;19.50;;;;;;;;;;5070551;28;20417;-42
2022/12/02 01:17:14;;;;;;;40.63;19.83;;;;;;;;;;5081705;28;20273;-42
2022/12/02 01:19:40;;;;;;;44.27;19.37;;;;;;;;;;5074238;28;20695;-42
2022/12/02 01:22:06;;;;;;;45.67;19.20;;;;;;;;;;5073248;28;20431;-42
2022/12/02 01:24:32;;;;;;;43.13;18.93;;;;;;;;;;5073504;28;20409;-42
2022/12/02 01:26:58;;;;;;;44.63;20.60;;;;;;;;;;5073412;28;20400;-42
2022/12/02 01:29:24;;;;;;;57.63;22.00;;;;;;;;;;5069533;28;20174;-42
2022/12/02 01:31:50;;;;;;;49.03;21.70;;;;;;;;;;5073076;28;20508;-42
2022/12/02 01:34:16;;;;;;;45.77;21.50;;;;;;;;;;5066721;28;20491;-42
2022/12/02 01:36:42;;;;;;;52.90;21.80;;;;;;;;;;5073956;28;20401;-42
2022/12/02 01:39:08;;;;;;;59.87;23.47;;;;;;;;;;5071965;28;20408;-42
2022/12/02 01:41:34;;;;;;;57.93;24.83;;;;;;;;;;5073417;28;20455;-42
2022/12/02 01:44:00;;;;;;;50.13;23.25;;;;;;;;;;5073830;28;20407;-42
2022/12/02 01:46:26;;;;;;;61.00;24.00;;;;;;;;;;5073711;28;20277;-42
2022/12/02 01:48:52;;;;;;;59.20;25.40;;;;;;;;;;5073679;28;20687;-42
2022/12/02 01:51:18;;;;;;;61.73;24.03;;;;;;;;;;5073318;28;20405;-42
2022/12/02 01:53:44;;;;;;;61.33;26.33;;;;;;;;;;5073592;28;20397;-42
2022/12/02 01:56:10;;;;;;;63.40;25.67;;;;;;;;;;5070027;28;20288;-42
2022/12/02 01:58:37;;;;;;;59.13;24.88;;;;;;;;;;5073475;28;20405;-42
2022/12/02 02:01:03;;;;;;;60.38;25.33;;;;;;;;;;5068418;28;20182;-42
2022/12/02 02:03:29;;;;;;;56.55;24.83;;;;;;;;;;5070191;28;20194;-42
2022/12/02 02:05:55;;;;;;;48.88;22.27;;;;;;;;;;5072936;28;20186;-42
2022/12/02 02:08:22;;;;;;;44.33;20.23;;;;;;;;;;5071004;28;20655;-42
2022/12/02 02:10:48;;;;;;;62.92;25.77;;;;;;;;;;5072788;28;20695;-42
2022/12/02 02:13:15;;;;;;;70.80;27.15;;;;;;;;;;5073166;28;20289;-42
2022/12/02 02:15:42;;;;;;;72.18;24.33;;;;;;;;;;5063895;28;20190;-42
2022/12/02 02:18:09;;;;;;;55.78;22.50;;;;;;;;;;5072941;28;20189;-42
2022/12/02 02:20:38;;;;;;;64.15;25.02;;;;;;;;;;5072970;28;20179;-42
2022/12/02 02:23:04;;;;;;;62.45;23.80;;;;;;;;;;5071599;28;20190;-42
2022/12/02 02:25:31;;;;;;;60.73;25.50;;;;;;;;;;5070782;28;20194;-42
2022/12/02 02:27:57;;;;;;;64.30;25.65;;;;;;;;;;5073163;28;20405;-42
2022/12/02 02:30:24;;;;;;;56.15;23.10;;;;;;;;;;5066097;28;20174;-42
2022/12/02 02:32:50;;;;;;;58.60;23.27;;;;;;;;;;5072548;28;20243;-42
2022/12/02 02:35:17;;;;;;;60.40;26.98;;;;;;;;;;5072828;28;20174;-42
2022/12/02 02:37:43;;;;;;;67.15;25.00;;;;;;;;;;5069338;28;20666;-42
2022/12/02 02:40:10;;;;;;;63.63;23.67;;;;;;;;;;5072644;28;20171;-42
2022/12/02 02:42:36;;;;;;;59.58;24.25;;;;;;;;;;5071812;28;20672;-42
2022/12/02 02:45:02;;;;;;;66.50;24.83;;;;;;;;;;5066371;28;20244;-42
2022/12/02 02:47:29;;;;;;;62.75;24.38;;;;;;;;;;5072462;28;20166;-42
2022/12/02 02:49:54;;;;;;;70.53;26.10;;;;;;;;;;5072498;28;20167;-42
2022/12/02 02:52:20;;;;;;;67.97;25.97;;;;;;;;;;5068749;28;20205;-42
2022/12/02 02:54:46;;;;;;;71.50;24.17;;;;;;;;;;5072678;28;20409;-42
2022/12/02 02:57:12;;;;;;;68.90;24.10;;;;;;;;;;5066888;28;20467;-42
2022/12/02 02:59:40;;;;;;;68.00;25.87;;;;;;;;;;5071233;28;20170;-42
2022/12/02 03:02:08;;;;;;;55.75;25.65;;;;;;;;;;5072080;28;20778;-42
2022/12/02 03:04:34;;;;;;;67.10;25.60;;;;;;;;;;5070551;28;20167;-42
2022/12/02 03:07:00;;;;;;;63.10;26.50;;;;;;;;;;5072172;28;20170;-42
2022/12/02 03:09:26;;;;;;;65.25;24.73;;;;;;;;;;5067042;28;20284;-42
2022/12/02 03:11:53;;;;;;;69.57;28.10;;;;;;;;;;5071681;28;20649;-42
2022/12/02 03:14:20;;;;;;;61.80;25.38;;;;;;;;;;5064071;28;20433;-42
2022/12/02 03:16:46;;;;;;;56.88;24.45;;;;;;;;;;5070461;28;20198;-42
2022/12/02 03:19:13;;;;;;;72.97;28.20;;;;;;;;;;5072031;28;20249;-42
2022/12/02 03:21:39;;;;;;;56.03;24.42;;;;;;;;;;5071609;28;20268;-42
2022/12/02 03:24:05;;;;;;;60.15;26.15;;;;;;;;;;5067147;28;20257;-42
2022/12/02 03:26:32;;;;;;;53.40;21.73;;;;;;;;;;5070149;28;20198;-42
2022/12/02 03:28:59;;;;;;;55.90;21.77;;;;;;;;;;5063918;28;20217;-42
2022/12/02 03:31:25;;;;;;;65.32;24.67;;;;;;;;;;5069860;28;20175;-42
2022/12/02 03:33:51;;;;;;;66.40;23.85;;;;;;;;;;5071848;28;20546;-42
2022/12/02 03:36:17;;;;;;;56.35;24.00;;;;;;;;;;5067488;28;20253;-42
2022/12/02 03:38:44;;;;;;;67.30;22.87;;;;;;;;;;5071463;28;20197;-42
2022/12/02 03:41:10;;;;;;;56.10;23.42;;;;;;;;;;5071340;28;20446;-42
2022/12/02 03:43:36;;;;;;;63.95;22.80;;;;;;;;;;5063790;28;20231;-42
2022/12/02 03:46:03;;;;;;;49.95;20.45;;;;;;;;;;5071533;28;20527;-42
2022/12/02 03:48:29;;;;;;;57.67;23.40;;;;;;;;;;5068535;28;20583;-42
2022/12/02 03:50:56;;;;;;;68.30;25.63;;;;;;;;;;5071338;28;20532;-42
2022/12/02 03:53:22;;;;;;;63.95;23.83;;;;;;;;;;5065062;28;20190;-42
2022/12/02 03:55:48;;;;;;;69.35;25.30;;;;;;;;;;5068014;28;20166;-42
2022/12/02 03:58:14;;;;;;;60.05;23.75;;;;;;;;;;5066652;28;20174;-42
2022/12/02 04:00:40;;;;;;;61.30;23.80;;;;;;;;;;5070613;28;20178;-42
2022/12/02 04:03:06;;;;;;;61.07;21.77;;;;;;;;;;5071219;28;20501;-42
2022/12/02 04:05:32;;;;;;;55.97;22.77;;;;;;;;;;5066625;28;20455;-42
2022/12/02 04:07:58;;;;;;;58.05;21.45;;;;;;;;;;5071470;28;20388;-42
2022/12/02 04:10:24;;;;;;;53.40;21.13;;;;;;;;;;5063063;28;20189;-42
2022/12/02 04:12:50;;;;;;;44.57;17.70;;;;;;;;;;5071165;28;20287;-42
2022/12/02 04:15:16;;;;;;;49.90;19.80;;;;;;;;;;5068888;28;20870;-42
2022/12/02 04:17:42;;;;;;;55.20;21.70;;;;;;;;;;5071253;28;20178;-42
2022/12/02 04:20:09;;;;;;;46.83;19.70;;;;;;;;;;5071259;28;20178;-42
2022/12/02 04:22:35;;;;;;;46.42;21.15;;;;;;;;;;5064640;28;20443;-42
2022/12/02 04:25:03;;;;;;;69.40;22.00;;;;;;;;;;5071133;28;20202;-42
2022/12/02 04:27:28;;;;;;;58.15;21.88;;;;;;;;;;5071107;28;20411;-42
2022/12/02 04:29:54;;;;;;;55.90;20.87;;;;;;;;;;5068227;28;20253;-42
2022/12/02 04:32:20;;;;;;;71.37;27.07;;;;;;;;;;5070874;28;20439;-42
2022/12/02 04:34:46;;;;;;;65.57;21.77;;;;;;;;;;5063037;28;20487;-42
2022/12/02 04:37:12;;;;;;;68.00;26.43;;;;;;;;;;5071227;28;20808;-42
2022/12/02 04:39:38;;;;;;;67.23;24.20;;;;;;;;;;5074761;28;20447;-42
2022/12/02 04:42:04;;;;;;;65.13;22.43;;;;;;;;;;5074641;28;20443;-42
2022/12/02 04:44:30;;;;;;;68.40;24.02;;;;;;;;;;5072003;28;20431;-42
2022/12/02 04:46:56;;;;;;;69.80;24.50;;;;;;;;;;5074825;28;20535;-42
2022/12/02 04:49:22;;;;;;;67.47;23.10;;;;;;;;;;5068706;28;20409;-42
2022/12/02 04:51:48;;;;;;;67.60;25.53;;;;;;;;;;5074468;28;20416;-42
2022/12/02 04:54:14;;;;;;;75.63;26.40;;;;;;;;;;5074622;28;20413;-42
2022/12/02 04:56:40;;;;;;;63.57;24.50;;;;;;;;;;5074876;28;20975;-42
2022/12/02 04:59:06;;;;;;;62.27;24.60;;;;;;;;;;5071692;28;20416;-42
2022/12/02 05:01:32;;;;;;;67.80;24.90;;;;;;;;;;5074184;28;20436;-42
2022/12/02 05:03:58;;;;;;;70.17;25.90;;;;;;;;;;5068422;28;20458;-42
2022/12/02 05:06:24;;;;;;;67.67;25.57;;;;;;;;;;5074385;28;20466;-42
2022/12/02 05:08:50;;;;;;;79.87;24.27;;;;;;;;;;5074585;28;20443;-41
2022/12/02 05:11:16;;;;;;;71.78;25.92;;;;;;;;;;5073874;28;20428;-42
2022/12/02 05:13:42;;;;;;;76.27;26.17;;;;;;;;;;5073003;28;20174;-42
2022/12/02 05:16:07;;;;;;;80.72;25.42;;;;;;;;;;5069928;28;20412;-42
2022/12/02 05:18:33;;;;;;;75.33;27.43;;;;;;;;;;5074181;28;20278;-42
2022/12/02 05:20:59;;;;;;;67.67;24.27;;;;;;;;;;5074054;28;20416;-42
2022/12/02 05:23:25;;;;;;;80.73;26.50;;;;;;;;;;5074003;28;20443;-42
2022/12/02 05:25:51;;;;;;;76.90;25.67;;;;;;;;;;5071344;28;20597;-42
2022/12/02 05:28:17;;;;;;;69.30;23.33;;;;;;;;;;5074056;28;20401;-42
2022/12/02 05:30:43;;;;;;;67.60;26.40;;;;;;;;;;5072989;28;20502;-42
2022/12/02 05:33:09;;;;;;;72.90;25.25;;;;;;;;;;5068886;28;20420;-42
2022/12/02 05:35:35;;;;;;;75.20;27.80;;;;;;;;;;5073859;28;20181;-42
2022/12/02 05:38:01;;;;;;;74.30;26.00;;;;;;;;;;5073923;28;20491;-42
2022/12/02 05:40:27;;;;;;;72.90;26.10;;;;;;;;;;5070998;28;20413;-42
2022/12/02 05:42:53;;;;;;;76.90;27.80;;;;;;;;;;5073732;28;20519;-42
2022/12/02 05:45:21;;;;;;;88.45;28.33;;;;;;;;;;5073674;28;20829;-42
2022/12/02 05:47:48;;;;;;;60.92;23.90;;;;;;;;;;5065664;28;20593;-42
2022/12/02 05:50:15;;;;;;;85.53;29.02;;;;;;;;;;5073299;28;20167;-42
2022/12/02 05:52:42;;;;;;;93.93;28.45;;;;;;;;;;5073380;28;20237;-42
2022/12/02 05:55:16;;;;;;;81.95;28.65;;;;;;;;;;5073605;28;20177;-42
2022/12/02 05:57:42;;;;;;;81.43;28.02;;;;;;;;;;5069143;28;20175;-42
2022/12/02 06:00:08;;;;;;;71.67;27.63;;;;;;;;;;5073618;28;20174;-42
2022/12/02 06:02:38;;;;;;;93.23;28.17;;;;;;;;;;5073146;28;20956;-42
2022/12/02 06:05:17;;;;;;;79.47;27.42;;;;;;;;;;5073237;28;20456;-42
2022/12/02 06:07:43;;;;;;;89.28;29.25;;;;;;;;;;5070673;28;20162;-42
2022/12/02 06:10:15;;;;;;;85.57;28.92;;;;;;;;;;5073217;28;20181;-42
2022/12/02 06:12:41;;;;;;;80.40;28.75;;;;;;;;;;5072830;28;20209;-42
2022/12/02 06:15:12;;;;;;;76.80;29.80;;;;;;;;;;5073346;28;20175;-42
2022/12/02 06:17:38;;;;;;;96.40;28.02;;;;;;;;;;5065506;28;20484;-42
2022/12/02 06:20:04;;;;;;;88.40;27.47;;;;;;;;;;5072063;28;20236;-42
2022/12/02 06:22:31;;;;;;;77.95;27.77;;;;;;;;;;5072740;28;20421;-42
2022/12/02 06:24:59;;;;;;;96.97;31.38;;;;;;;;;;5068717;28;20194;-42
2022/12/02 06:27:26;;;;;;;69.93;25.42;;;;;;;;;;5072819;28;20724;-42
2022/12/02 06:29:55;;;;;;;78.85;27.83;;;;;;;;;;5072950;28;20171;-42
2022/12/02 06:32:22;;;;;;;75.22;27.67;;;;;;;;;;5072564;28;20186;-42
2022/12/02 06:34:49;;;;;;;100.45;27.45;;;;;;;;;;5072962;28;20166;-42
2022/12/02 06:37:18;;;;;;;75.15;27.88;;;;;;;;;;5071551;28;20176;-43
2022/12/02 06:39:45;;;;;;;75.63;27.02;;;;;;;;;;5073605;28;20609;-43
2022/12/02 06:42:19;;;;;;;75.07;27.00;;;;;;;;;;5067866;28;20615;-44
2022/12/02 06:45:04;;;;;;;68.00;24.45;;;;;;;;;;5073864;28;20227;-43
2022/12/02 06:47:36;;;;;;;74.85;26.15;;;;;;;;;;5073938;28;20170;-43
2022/12/02 06:50:05;;;;;;;67.63;24.77;;;;;;;;;;5071278;28;20177;-43
2022/12/02 06:52:37;;;;;;;78.93;25.17;;;;;;;;;;5073434;28;20612;-43
2022/12/02 06:55:10;;;;;;;55.00;23.55;;;;;;;;;;5069803;28;20182;-43
2022/12/02 06:57:36;;;;;;;69.03;26.63;;;;;;;;;;5071856;28;20218;-43
2022/12/02 07:00:04;;;;;;;65.53;27.00;;;;;;;;;;5072468;28;20640;-44
2022/12/02 07:02:31;;;;;;;63.67;24.63;;;;;;;;;;5065598;28;20433;-43
2022/12/02 07:04:58;;;;;;;73.88;24.77;;;;;;;;;;5071472;28;20209;-44
2022/12/02 07:07:28;;;;;;;62.40;23.30;;;;;;;;;;5072618;28;20710;-42
2022/12/02 07:09:54;;;;;;;63.55;25.60;;;;;;;;;;5067189;28;20271;-43
2022/12/02 07:12:21;;;;;;;70.43;25.03;;;;;;;;;;5066319;28;20252;-43
2022/12/02 07:14:47;;;;;;;55.95;25.17;;;;;;;;;;5064291;28;21100;-43
2022/12/02 07:17:13;;;;;;;67.07;22.37;;;;;;;;;;5072688;28;20237;-43
2022/12/02 07:19:41;;;;;;;56.70;23.93;;;;;;;;;;5072754;28;20768;-43
2022/12/02 07:22:12;;;;;;;61.15;24.08;;;;;;;;;;5068637;28;20420;-43
2022/12/02 07:24:39;;;;;;;57.55;21.08;;;;;;;;;;5073195;28;20265;-43
2022/12/02 07:27:12;;;;;;;53.90;23.55;;;;;;;;;;5065706;28;20186;-42
2022/12/02 07:29:38;;;;;;;45.50;19.88;;;;;;;;;;5072574;28;20177;-44
2022/12/02 07:32:04;;;;;;;58.10;23.37;;;;;;;;;;5072722;28;20190;-43
2022/12/02 07:34:30;;;;;;;52.60;22.70;;;;;;;;;;5068358;28;20394;-43
2022/12/02 07:36:56;;;;;;;49.33;22.20;;;;;;;;;;5072733;28;20768;-43
2022/12/02 07:39:22;;;;;;;52.63;22.03;;;;;;;;;;5071186;28;20839;-42
2022/12/02 07:41:48;;;;;;;59.63;21.37;;;;;;;;;;5064765;28;20833;-43
2022/12/02 07:44:14;;;;;;;57.37;20.97;;;;;;;;;;5071575;28;20827;-43
2022/12/02 07:46:40;;;;;;;52.30;21.00;;;;;;;;;;5072820;28;20478;-43
2022/12/02 07:49:06;;;;;;;51.80;21.50;;;;;;;;;;5068813;28;20408;-43
2022/12/02 07:51:31;;;;;;;51.23;20.33;;;;;;;;;;5071899;28;20436;-44
2022/12/02 07:53:58;;;;;;;44.53;19.60;;;;;;;;;;5068463;28;20412;-43
2022/12/02 07:56:24;;;;;;;55.97;21.17;;;;;;;;;;5068499;28;20408;-44
2022/12/02 07:58:50;;;;;;;52.53;22.40;;;;;;;;;;5072048;28;20531;-43
2022/12/02 08:01:15;;;;;;;50.37;20.47;;;;;;;;;;5071820;28;20404;-43
2022/12/02 08:03:41;;;;;;;40.33;18.30;;;;;;;;;;5067982;28;20887;-43
2022/12/02 08:06:07;;;;;;;39.70;19.30;;;;;;;;;;5071885;28;21059;-43
2022/12/02 08:08:33;;;;;;;43.00;20.37;;;;;;;;;;5065158;28;20397;-43
2022/12/02 08:10:59;;;;;;;44.47;20.47;;;;;;;;;;5071464;28;21124;-43
2022/12/02 08:13:25;;;;;;;46.87;19.40;;;;;;;;;;5071635;28;20417;-43
2022/12/02 08:15:51;;;;;;;38.63;19.10;;;;;;;;;;5076838;28;20412;-43
2022/12/02 08:18:17;;;;;;;51.15;18.92;;;;;;;;;;5076113;28;20408;-43
2022/12/02 08:20:43;;;;;;;46.07;19.93;;;;;;;;;;5069842;28;20189;-43
2022/12/02 08:23:09;;;;;;;43.53;20.90;;;;;;;;;;5073957;28;20440;-43
2022/12/02 08:25:35;;;;;;;34.47;16.53;;;;;;;;;;5074893;28;20509;-42
2022/12/02 08:28:01;;;;;;;43.67;17.87;;;;;;;;;;5071942;28;20412;-43
2022/12/02 08:30:27;;;;;;;43.10;18.53;;;;;;;;;;5074727;28;20415;-43
2022/12/02 08:32:53;;;;;;;41.73;18.30;;;;;;;;;;5072607;28;20432;-43
2022/12/02 08:35:19;;;;;;;39.07;17.03;;;;;;;;;;5076240;28;20498;-43
2022/12/02 08:37:45;;;;;;;37.10;16.90;;;;;;;;;;5075647;28;20438;-44
2022/12/02 08:40:11;;;;;;;28.10;15.53;;;;;;;;;;5076055;28;20932;-44
2022/12/02 08:42:37;;;;;;;31.05;15.77;;;;;;;;;;5073264;28;20949;-43
2022/12/02 08:45:03;;;;;;;39.40;18.23;;;;;;;;;;5075723;28;20201;-43
2022/12/02 08:47:29;;;;;;;34.45;16.42;;;;;;;;;;5069842;28;20446;-43
2022/12/02 08:49:55;;;;;;;35.87;17.57;;;;;;;;;;5072373;28;20183;-43
2022/12/02 08:52:21;;;;;;;44.63;17.10;;;;;;;;;;5074366;28;20424;-42
2022/12/02 08:54:47;;;;;;;35.13;17.27;;;;;;;;;;5074868;28;20978;-42
2022/12/02 08:57:13;;;;;;;43.63;18.60;;;;;;;;;;5075872;28;20401;-44
2022/12/02 08:59:39;;;;;;;49.95;19.58;;;;;;;;;;5075899;28;20411;-44
2022/12/02 09:02:06;;;;;;;31.70;17.10;;;;;;;;;;5070357;28;20186;-43
2022/12/02 09:04:32;;;;;;;38.75;19.83;;;;;;;;;;5075739;28;21132;-44
2022/12/02 09:06:58;;;;;;;40.30;20.40;;;;;;;;;;5076317;28;20226;-43
2022/12/02 09:09:24;;;;;;;46.50;21.40;;;;;;;;;;5073848;28;20479;-43
2022/12/02 09:11:50;;;;;;;43.47;19.37;;;;;;;;;;5073654;28;20305;-44
2022/12/02 09:14:16;;;;;;;40.77;19.23;;;;;;;;;;5071910;28;20420;-44
2022/12/02 09:16:41;;;;;;;38.83;17.17;;;;;;;;;;5075753;28;20428;-43
2022/12/02 09:19:07;;;;;;;37.83;18.00;;;;;;;;;;5068574;28;20477;-44
2022/12/02 09:21:33;;;;;;;43.07;20.10;;;;;;;;;;5075064;28;20794;-43
2022/12/02 09:23:59;;;;;;;34.40;19.50;;;;;;;;;;5074921;28;20408;-43
2022/12/02 09:26:25;;;;;;;39.37;19.80;;;;;;;;;;5071609;28;20587;-44
2022/12/02 09:28:51;;;;;;;43.07;20.20;;;;;;;;;;5074400;28;20409;-43
2022/12/02 09:31:17;;;;;;;31.97;17.27;;;;;;;;;;5075068;28;20403;-43
2022/12/02 09:33:43;;;;;;;36.87;17.70;;;;;;;;;;5069119;28;20408;-43
2022/12/02 09:36:09;;;;;;;40.17;18.43;;;;;;;;;;5074821;28;20413;-44
2022/12/02 09:38:35;;;;;;;37.87;18.70;;;;;;;;;;5075396;28;20862;-43
2022/12/02 09:41:01;;;;;;;32.70;17.93;;;;;;;;;;5073238;28;20409;-44
2022/12/02 09:43:28;;;;;;;38.10;19.67;;;;;;;;;;5069552;28;20793;-44
2022/12/02 09:45:54;;;;;;;38.60;19.38;;;;;;;;;;5074698;28;20190;-43
2022/12/02 09:48:20;;;;;;;31.30;16.45;;;;;;;;;;5075297;28;20505;-43
2022/12/02 09:50:46;;;;;;;32.10;16.85;;;;;;;;;;5075328;28;20158;-43
2022/12/02 09:53:14;;;;;;;37.00;19.57;;;;;;;;;;5073204;28;20701;-42
2022/12/02 09:55:40;;;;;;;32.38;17.60;;;;;;;;;;5074250;28;20459;-43
2022/12/02 09:58:14;;;;;;;31.70;18.33;;;;;;;;;;5070304;28;20177;-43
2022/12/02 10:00:40;;;;;;;34.05;18.45;;;;;;;;;;5066376;28;20918;-42
2022/12/02 10:03:07;;;;;;;36.33;16.63;;;;;;;;;;5074524;28;20236;-43
2022/12/02 10:05:33;;;;;;;35.53;15.90;;;;;;;;;;5075136;28;20808;-44
2022/12/02 10:07:59;;;;;;;28.25;17.08;;;;;;;;;;5074087;28;20174;-43
2022/12/02 10:10:27;;;;;;;32.60;16.08;;;;;;;;;;5072306;28;20263;-43
2022/12/02 10:12:53;;;;;;;28.10;14.40;;;;;;;;;;5069698;28;20760;-43
2022/12/02 10:15:24;;;;;;;31.23;17.15;;;;;;;;;;5068717;28;20181;-44
2022/12/02 10:17:50;;;;;;;30.40;17.92;;;;;;;;;;5066848;28;20182;-43
2022/12/02 10:20:18;;;;;;;27.80;16.05;;;;;;;;;;5073075;28;20166;-42
2022/12/02 10:23:02;;;;;;;33.10;15.93;;;;;;;;;;5066108;28;20600;-43
2022/12/02 10:25:29;;;;;;;32.42;16.75;;;;;;;;;;5064380;28;20759;-42
2022/12/02 10:27:55;;;;;;;32.65;16.85;;;;;;;;;;5052966;28;20645;-42
2022/12/02 10:30:24;;;;;;;33.97;16.80;;;;;;;;;;5068487;28;20186;-43
2022/12/02 10:33:03;;;;;;;32.53;16.33;;;;;;;;;;5052765;28;20417;-41
2022/12/02 10:35:42;;;;;;;32.05;16.25;;;;;;;;;;5068472;28;20192;-41
2022/12/02 10:38:26;;;;;;;36.75;17.63;;;;;;;;;;5054825;28;20186;-42
2022/12/02 10:40:52;;;;;;;40.85;19.13;;;;;;;;;;5054560;28;20248;-42
2022/12/02 10:43:19;;;;;;;29.50;16.47;;;;;;;;;;5052530;28;20215;-41
2022/12/02 10:45:58;;;;;;;41.30;19.15;;;;;;;;;;5058678;28;20986;-42
2022/12/02 10:48:24;;;;;;;32.13;17.88;;;;;;;;;;5051072;28;20664;-43
2022/12/02 10:50:50;;;;;;;30.55;17.17;;;;;;;;;;5063568;28;20202;-43
2022/12/02 10:53:18;;;;;;;36.33;18.20;;;;;;;;;;5053704;28;20210;-43
2022/12/02 10:55:45;;;;;;;39.13;19.27;;;;;;;;;;5071443;28;20409;-43
2022/12/02 10:58:12;;;;;;;43.85;18.98;;;;;;;;;;5072809;28;20188;-42
2022/12/02 11:00:38;;;;;;;39.70;19.35;;;;;;;;;;5071434;28;20187;-42
2022/12/02 11:03:05;;;;;;;33.23;16.97;;;;;;;;;;5057498;28;20207;-43
2022/12/02 11:05:32;;;;;;;36.00;17.67;;;;;;;;;;5055303;28;20453;-43
2022/12/02 11:08:01;;;;;;;38.17;17.85;;;;;;;;;;5053305;28;20182;-42
2022/12/02 11:10:32;;;;;;;32.42;17.70;;;;;;;;;;5059850;28;20183;-43
2022/12/02 11:13:00;;;;;;;38.00;18.65;;;;;;;;;;5057653;28;20277;-43
2022/12/02 11:15:48;;;;;;;32.38;17.77;;;;;;;;;;5070365;28;20548;-42
2022/12/02 11:18:14;;;;;;;35.30;18.55;;;;;;;;;;5053224;28;20250;-42
2022/12/02 11:20:42;;;;;;;37.40;19.53;;;;;;;;;;5068506;28;20698;-42
2022/12/02 11:23:16;;;;;;;37.13;18.20;;;;;;;;;;5053742;28;20946;-43
2022/12/02 11:25:42;;;;;;;46.20;18.92;;;;;;;;;;5069239;28;20233;-43
2022/12/02 11:28:14;;;;;;;41.67;20.40;;;;;;;;;;5056155;28;20288;-41
2022/12/02 11:30:41;;;;;;;37.13;19.95;;;;;;;;;;5054302;28;20436;-42
2022/12/02 11:33:10;;;;;;;33.13;17.80;;;;;;;;;;5061076;28;20202;-41
2022/12/02 11:36:12;;;;;;;40.90;21.15;;;;;;;;;;5071096;28;20175;-42
2022/12/02 11:38:57;;;;;;;40.05;19.42;;;;;;;;;;5049215;28;20194;-42
2022/12/02 11:41:25;;;;;;;42.95;21.35;;;;;;;;;;5059195;28;20194;-42
2022/12/02 11:44:10;;;;;;;38.78;20.90;;;;;;;;;;5071468;28;20182;-41
2022/12/02 11:46:41;;;;;;;33.53;18.80;;;;;;;;;;5070804;28;20198;-41
2022/12/02 11:49:20;;;;;;;38.88;21.08;;;;;;;;;;5070878;28;20183;-42
2022/12/02 11:51:46;;;;;;;41.70;21.02;;;;;;;;;;5070872;28;20190;-41
2022/12/02 11:54:13;;;;;;;38.73;20.33;;;;;;;;;;5070904;28;20173;-42
2022/12/02 11:56:40;;;;;;;45.17;21.98;;;;;;;;;;5070366;28;20477;-41
2022/12/02 11:59:25;;;;;;;40.85;20.60;;;;;;;;;;5070539;28;20257;-42
2022/12/02 12:02:06;;;;;;;43.45;20.80;;;;;;;;;;5070621;28;20706;-42
2022/12/02 12:04:32;;;;;;;42.72;20.85;;;;;;;;;;5070664;28;20177;-43
2022/12/02 12:06:59;;;;;;;45.08;21.92;;;;;;;;;;5071062;28;20205;-42
2022/12/02 12:09:26;;;;;;;50.58;26.30;;;;;;;;;;5071224;28;20181;-42
2022/12/02 12:12:27;;;;;;;49.88;22.42;;;;;;;;;;5064701;28;20710;-41
2022/12/02 12:14:56;;;;;;;48.63;22.45;;;;;;;;;;5036112;28;20175;-41
2022/12/02 12:17:31;;;;;;;57.05;25.73;;;;;;;;;;5055532;28;20186;-41
2022/12/02 12:19:57;;;;;;;42.67;20.38;;;;;;;;;;5070442;28;20176;-42
2022/12/02 12:22:27;;;;;;;45.03;21.97;;;;;;;;;;5070735;28;20187;-44
2022/12/02 12:24:53;;;;;;;42.60;18.83;;;;;;;;;;5071309;28;20446;-42
2022/12/02 12:27:33;;;;;;;44.28;22.83;;;;;;;;;;5071041;28;20734;-42
2022/12/02 12:29:59;;;;;;;49.40;22.80;;;;;;;;;;5060909;28;20228;-42
2022/12/02 12:32:25;;;;;;;48.65;21.70;;;;;;;;;;5057110;28;20190;-42
2022/12/02 12:34:51;;;;;;;62.03;25.70;;;;;;;;;;5054608;28;20197;-42
2022/12/02 12:37:17;;;;;;;52.40;23.30;;;;;;;;;;5071052;28;20491;-41
2022/12/02 12:39:43;;;;;;;59.07;28.20;;;;;;;;;;5070187;28;20409;-41
2022/12/02 12:42:09;;;;;;;52.28;23.05;;;;;;;;;;5070459;28;20412;-41
2022/12/02 12:44:35;;;;;;;58.60;26.67;;;;;;;;;;5071018;28;20186;-42
2022/12/02 12:47:02;;;;;;;42.17;20.70;;;;;;;;;;5070328;28;20486;-43
2022/12/02 12:49:28;;;;;;;66.50;30.10;;;;;;;;;;5070571;28;20516;-42
2022/12/02 12:51:54;;;;;;;51.13;26.45;;;;;;;;;;5070920;28;20206;-42
2022/12/02 12:54:20;;;;;;;52.60;23.30;;;;;;;;;;5070824;28;20611;-41
2022/12/02 12:56:46;;;;;;;44.40;22.57;;;;;;;;;;5064291;28;20418;-41
2022/12/02 12:59:12;;;;;;;49.53;24.23;;;;;;;;;;5051208;28;20512;-42
2022/12/02 13:01:38;;;;;;;44.80;22.97;;;;;;;;;;5071768;28;20565;-42
2022/12/02 13:04:04;;;;;;;42.77;21.57;;;;;;;;;;5067370;28;20419;-42
2022/12/02 13:06:30;;;;;;;45.42;23.33;;;;;;;;;;5073520;28;20460;-41
2022/12/02 13:08:56;;;;;;;46.33;21.20;;;;;;;;;;5074078;28;20670;-42
2022/12/02 13:11:22;;;;;;;48.37;25.47;;;;;;;;;;5073309;28;20415;-42
2022/12/02 13:13:48;;;;;;;52.50;22.87;;;;;;;;;;5065756;28;20544;-42
2022/12/02 13:16:14;;;;;;;42.90;21.10;;;;;;;;;;5062689;28;20503;-41
2022/12/02 13:18:40;;;;;;;42.07;20.90;;;;;;;;;;5072861;28;20419;-42
2022/12/02 13:21:06;;;;;;;46.90;22.80;;;;;;;;;;5073549;28;20413;-42
2022/12/02 13:23:32;;;;;;;43.73;21.37;;;;;;;;;;5072135;28;20519;-42
2022/12/02 13:25:58;;;;;;;40.03;21.07;;;;;;;;;;5070401;28;20968;-42
2022/12/02 13:28:24;;;;;;;42.23;22.80;;;;;;;;;;5073652;28;20906;-41
2022/12/02 13:30:50;;;;;;;50.63;22.10;;;;;;;;;;5072954;28;20903;-42
2022/12/02 13:33:16;;;;;;;46.80;22.00;;;;;;;;;;5073251;28;20429;-41
2022/12/02 13:35:42;;;;;;;37.80;21.00;;;;;;;;;;5073512;28;20224;-41
2022/12/02 13:38:08;;;;;;;37.23;19.33;;;;;;;;;;5072510;28;20403;-42
2022/12/02 13:40:34;;;;;;;43.30;23.33;;;;;;;;;;5071492;28;20438;-41
2022/12/02 13:43:00;;;;;;;44.50;22.30;;;;;;;;;;5073299;28;20436;-41
2022/12/02 13:45:26;;;;;;;47.37;21.20;;;;;;;;;;5067101;28;20543;-43
2022/12/02 13:47:52;;;;;;;36.88;20.38;;;;;;;;;;5073001;28;20925;-42
2022/12/02 13:50:18;;;;;;;39.65;20.38;;;;;;;;;;5073180;28;20552;-42
2022/12/02 13:52:44;;;;;;;39.77;19.47;;;;;;;;;;5070366;28;20182;-41
2022/12/02 13:55:10;;;;;;;35.78;18.90;;;;;;;;;;5073205;28;20825;-42
2022/12/02 13:57:36;;;;;;;42.13;21.00;;;;;;;;;;5074317;28;20258;-41
2022/12/02 14:00:03;;;;;;;38.23;18.90;;;;;;;;;;5066716;28;20412;-41
2022/12/02 14:02:29;;;;;;;36.25;20.38;;;;;;;;;;5065082;28;20829;-41
2022/12/02 14:04:55;;;;;;;36.30;19.83;;;;;;;;;;5072049;28;20235;-41
2022/12/02 14:07:21;;;;;;;43.73;22.53;;;;;;;;;;5072379;28;20713;-42
2022/12/02 14:09:47;;;;;;;39.60;21.30;;;;;;;;;;5067319;28;20505;-41
2022/12/02 14:12:13;;;;;;;40.60;19.57;;;;;;;;;;5067358;28;20436;-42
2022/12/02 14:14:39;;;;;;;41.47;20.48;;;;;;;;;;5070279;28;20413;-42
2022/12/02 14:17:05;;;;;;;38.60;19.73;;;;;;;;;;5072616;28;20554;-41
2022/12/02 14:19:31;;;;;;;41.92;20.13;;;;;;;;;;5072996;28;20174;-42
2022/12/02 14:21:57;;;;;;;38.60;20.57;;;;;;;;;;5069589;28;20198;-42